Time;durP1;ratioP1;P1;durP2;ratioP2;P2;SDS_P1;SDS_P2;PMS_P1;PMS_P2;Temp;Humidity;BMP_temperature;BMP_pressure;BME280_temperature;BME280_humidity;BME280_pressure;Samples;Min_cycle;Max_cycle;Signal;HPM_P1;HPM_P2
2023/06/28 00:00:01;;;;;;;3.92;0.70;;;20.20;77.20;;;;;;5035843;28;20037;-76
2023/06/28 00:02:27;;;;;;;2.42;0.40;;;20.20;77.60;;;;;;5035597;28;20037;-77
2023/06/28 00:04:53;;;;;;;4.72;1.13;;;20.20;77.00;;;;;;5035602;28;20108;-77
2023/06/28 00:07:18;;;;;;;3.60;0.82;;;20.20;77.00;;;;;;5035718;28;20041;-77
2023/06/28 00:09:44;;;;;;;4.32;0.70;;;20.20;77.10;;;;;;5035255;28;20034;-77
2023/06/28 00:12:09;;;;;;;4.65;0.73;;;20.20;77.10;;;;;;5034145;28;20492;-76
2023/06/28 00:14:35;;;;;;;3.28;0.50;;;20.20;77.00;;;;;;5035690;28;20573;-77
2023/06/28 00:17:01;;;;;;;3.38;0.60;;;20.20;77.00;;;;;;5035821;28;20069;-77
2023/06/28 00:19:26;;;;;;;4.25;0.50;;;20.30;77.00;;;;;;5035310;28;20064;-77
2023/06/28 00:21:56;;;;;;;3.72;0.60;;;20.30;76.80;;;;;;5034061;28;20460;-77
2023/06/28 00:24:22;;;;;;;3.92;0.45;;;20.30;76.80;;;;;;5034938;28;20496;-77
2023/06/28 00:26:48;;;;;;;2.60;0.35;;;20.30;76.90;;;;;;5034915;28;20057;-77
2023/06/28 00:29:14;;;;;;;5.10;0.88;;;20.20;77.10;;;;;;5033834;28;20040;-76
2023/06/28 00:31:39;;;;;;;3.35;0.70;;;20.30;77.20;;;;;;5034719;28;20100;-76
2023/06/28 00:34:05;;;;;;;2.05;0.88;;;20.20;77.30;;;;;;5035003;28;20030;-77
2023/06/28 00:36:31;;;;;;;1.45;0.32;;;20.20;77.60;;;;;;5033596;28;20049;-77
2023/06/28 00:38:56;;;;;;;3.17;0.60;;;20.30;77.60;;;;;;5035089;28;20445;-77
2023/06/28 00:41:22;;;;;;;4.82;0.80;;;20.40;77.50;;;;;;5034937;28;20080;-77
2023/06/28 00:43:48;;;;;;;3.95;0.82;;;20.40;77.30;;;;;;5035306;28;20187;-76
2023/06/28 00:46:14;;;;;;;1.75;0.40;;;20.40;77.30;;;;;;5034508;28;20033;-76
2023/06/28 00:48:40;;;;;;;2.80;0.63;;;20.50;77.50;;;;;;5033904;28;20442;-77
2023/06/28 00:51:06;;;;;;;3.13;0.45;;;20.60;77.30;;;;;;5033468;28;20032;-77
2023/06/28 00:53:32;;;;;;;2.33;0.47;;;20.70;77.30;;;;;;5034359;28;20026;-76
2023/06/28 00:55:59;;;;;;;3.22;0.40;;;20.70;77.20;;;;;;5033979;28;20100;-77
2023/06/28 00:58:26;;;;;;;2.88;0.80;;;20.70;77.10;;;;;;5034548;28;20496;-77
2023/06/28 01:00:52;;;;;;;2.08;0.40;;;20.80;77.00;;;;;;5033093;28;20465;-77
2023/06/28 01:03:18;;;;;;;2.25;0.52;;;20.80;76.90;;;;;;5033035;28;20026;-77
2023/06/28 01:05:52;;;;;;;2.42;0.43;;;20.90;76.80;;;;;;5034305;28;20048;-77
2023/06/28 01:08:19;;;;;;;2.67;0.47;;;21.00;76.80;;;;;;5033001;28;20091;-77
2023/06/28 01:10:46;;;;;;;4.00;0.63;;;21.00;76.70;;;;;;5033554;28;20137;-77
2023/06/28 01:13:12;;;;;;;1.98;0.40;;;21.10;76.70;;;;;;5016718;28;20042;-77
2023/06/28 01:15:37;;;;;;;5.13;0.60;;;21.20;76.60;;;;;;5000282;28;20033;-76
2023/06/28 01:18:03;;;;;;;2.65;0.40;;;21.20;76.30;;;;;;5034332;28;20458;-77
2023/06/28 01:20:32;;;;;;;1.98;0.40;;;21.20;76.30;;;;;;5034149;28;20060;-76
2023/06/28 01:22:58;;;;;;;1.65;0.35;;;21.20;76.30;;;;;;5032976;28;20030;-77
2023/06/28 01:25:24;;;;;;;2.15;0.30;;;21.20;76.20;;;;;;5033779;28;20027;-77
2023/06/28 01:27:50;;;;;;;4.55;0.40;;;21.30;76.00;;;;;;5032809;28;20055;-76
2023/06/28 01:30:17;;;;;;;1.90;0.38;;;21.40;76.00;;;;;;5033797;28;20378;-77
2023/06/28 01:32:43;;;;;;;3.40;0.50;;;21.40;75.90;;;;;;5033107;28;20477;-77
2023/06/28 01:35:14;;;;;;;2.13;0.40;;;21.50;75.90;;;;;;5033951;28;20025;-77
2023/06/28 01:37:40;;;;;;;3.55;0.50;;;21.50;75.70;;;;;;5033294;28;20422;-76
2023/06/28 01:40:09;;;;;;;1.98;0.40;;;21.50;75.70;;;;;;5034088;28;20060;-76
2023/06/28 01:42:36;;;;;;;1.70;0.50;;;21.50;75.60;;;;;;5033089;28;20034;-76
2023/06/28 01:45:02;;;;;;;1.83;0.35;;;21.60;75.60;;;;;;5033412;28;20032;-76
2023/06/28 01:47:28;;;;;;;2.60;0.40;;;21.60;75.60;;;;;;5033832;28;20114;-76
2023/06/28 01:49:54;;;;;;;3.08;0.40;;;21.60;75.60;;;;;;5033884;28;20474;-76
2023/06/28 01:52:20;;;;;;;1.98;0.40;;;21.60;75.50;;;;;;5033532;28;20108;-76
2023/06/28 01:54:45;;;;;;;1.35;0.30;;;21.60;75.60;;;;;;5033558;28;20116;-76
2023/06/28 01:57:12;;;;;;;2.72;0.40;;;21.70;75.60;;;;;;5033698;28;20029;-76
2023/06/28 01:59:37;;;;;;;1.52;0.32;;;21.70;75.50;;;;;;5033539;28;20473;-76
2023/06/28 02:02:03;;;;;;;1.48;0.40;;;21.70;75.60;;;;;;5033461;28;20068;-76
2023/06/28 02:04:29;;;;;;;3.45;0.68;;;21.70;75.60;;;;;;5033563;28;20381;-75
2023/06/28 02:06:56;;;;;;;3.28;0.45;;;21.70;75.80;;;;;;5032566;28;20038;-75
2023/06/28 02:09:22;;;;;;;2.35;0.40;;;21.70;75.80;;;;;;5033352;28;20033;-76
2023/06/28 02:11:48;;;;;;;1.63;0.30;;;21.70;75.60;;;;;;5033295;28;20033;-76
2023/06/28 02:14:14;;;;;;;1.88;0.40;;;21.70;75.50;;;;;;5033024;28;20488;-76
2023/06/28 02:16:41;;;;;;;2.10;0.28;;;21.70;75.40;;;;;;5032044;28;20033;-76
2023/06/28 02:19:11;;;;;;;1.98;0.22;;;21.80;75.40;;;;;;5033230;28;20029;-76
2023/06/28 02:21:36;;;;;;;1.40;0.65;;;21.80;75.30;;;;;;5033288;28;20530;-76
2023/06/28 02:24:02;;;;;;;1.77;0.52;;;21.80;75.30;;;;;;5032866;28;20038;-76
2023/06/28 02:26:29;;;;;;;2.03;0.30;;;21.80;75.40;;;;;;5033127;28;20406;-76
2023/06/28 02:28:55;;;;;;;2.85;0.50;;;21.80;75.30;;;;;;5033134;28;20033;-76
2023/06/28 02:31:21;;;;;;;1.00;0.30;;;21.80;75.30;;;;;;5032447;28;20037;-76
2023/06/28 02:33:46;;;;;;;1.30;0.22;;;21.80;75.40;;;;;;5033553;28;20053;-76
2023/06/28 02:36:13;;;;;;;2.25;0.77;;;21.70;75.50;;;;;;5033514;28;20037;-76
2023/06/28 02:38:38;;;;;;;1.63;0.55;;;21.70;75.50;;;;;;5032962;28;20029;-75
2023/06/28 02:41:04;;;;;;;1.55;0.30;;;21.70;75.60;;;;;;5032752;28;20030;-76
2023/06/28 02:43:29;;;;;;;2.88;0.60;;;21.70;75.90;;;;;;5033198;28;20462;-75
2023/06/28 02:45:55;;;;;;;1.42;0.30;;;21.70;75.90;;;;;;5032878;28;20033;-76
2023/06/28 02:48:22;;;;;;;1.40;0.40;;;21.70;76.10;;;;;;5031637;28;20057;-74
2023/06/28 02:50:47;;;;;;;1.58;0.40;;;21.70;76.20;;;;;;5033266;28;20041;-76
2023/06/28 02:53:14;;;;;;;2.10;0.40;;;21.70;76.50;;;;;;5015142;28;20033;-75
2023/06/28 02:55:39;;;;;;;2.65;0.40;;;21.70;76.50;;;;;;5032775;28;20037;-75
2023/06/28 02:58:05;;;;;;;1.45;0.40;;;21.70;76.70;;;;;;5031375;28;20386;-75
2023/06/28 03:00:31;;;;;;;1.52;0.47;;;21.60;76.80;;;;;;5032115;28;20040;-75
2023/06/28 03:02:56;;;;;;;1.48;0.35;;;21.60;77.10;;;;;;5031798;28;20104;-75
2023/06/28 03:05:22;;;;;;;1.10;0.30;;;21.50;77.40;;;;;;5031818;28;20463;-75
2023/06/28 03:07:47;;;;;;;6.43;0.43;;;21.50;77.40;;;;;;5033125;28;20116;-75
2023/06/28 03:10:14;;;;;;;2.08;0.30;;;21.40;77.20;;;;;;5031151;28;20030;-75
2023/06/28 03:12:40;;;;;;;1.10;0.22;;;21.40;77.00;;;;;;5032469;28;20033;-75
2023/06/28 03:15:06;;;;;;;1.35;0.20;;;21.40;76.80;;;;;;5032274;28;20080;-75
2023/06/28 03:17:32;;;;;;;2.05;0.30;;;21.50;76.70;;;;;;5032545;28;20041;-75
2023/06/28 03:19:58;;;;;;;1.10;0.20;;;21.50;76.70;;;;;;5034221;28;20343;-75
2023/06/28 03:22:23;;;;;;;1.98;0.40;;;21.40;76.80;;;;;;5036213;28;20385;-75
2023/06/28 03:24:49;;;;;;;1.90;0.30;;;21.40;76.90;;;;;;5036246;28;20026;-75
2023/06/28 03:27:15;;;;;;;1.02;0.25;;;21.40;76.90;;;;;;5034645;28;20041;-75
2023/06/28 03:29:40;;;;;;;1.05;0.20;;;21.40;76.80;;;;;;5035496;28;20033;-75
2023/06/28 03:32:07;;;;;;;1.63;0.25;;;21.40;76.60;;;;;;5036141;28;20061;-75
2023/06/28 03:34:33;;;;;;;1.63;0.30;;;21.40;76.50;;;;;;5035792;28;20099;-75
2023/06/28 03:36:58;;;;;;;1.75;0.32;;;21.40;76.50;;;;;;5034720;28;20116;-75
2023/06/28 03:39:25;;;;;;;0.85;0.40;;;21.40;76.50;;;;;;5035511;28;20120;-75
2023/06/28 03:41:50;;;;;;;1.15;0.17;;;21.40;76.60;;;;;;5034706;28;20026;-75
2023/06/28 03:44:16;;;;;;;2.47;0.20;;;21.40;76.60;;;;;;5035932;28;20040;-75
2023/06/28 03:46:42;;;;;;;1.83;0.30;;;21.40;76.80;;;;;;5035490;28;20104;-75
2023/06/28 03:49:07;;;;;;;2.65;0.40;;;21.40;76.90;;;;;;5035843;28;20498;-75
2023/06/28 03:51:33;;;;;;;1.13;0.25;;;21.40;77.00;;;;;;5018077;28;20469;-75
2023/06/28 03:53:58;;;;;;;1.15;0.30;;;21.40;77.10;;;;;;5035949;28;20030;-75
2023/06/28 03:56:24;;;;;;;1.50;0.43;;;21.40;77.20;;;;;;5035422;28;20041;-75
2023/06/28 03:58:50;;;;;;;2.05;0.30;;;21.40;77.40;;;;;;5035634;28;20060;-75
2023/06/28 04:01:16;;;;;;;3.03;0.28;;;21.40;77.50;;;;;;5035583;28;20123;-75
2023/06/28 04:03:42;;;;;;;1.15;0.20;;;21.40;77.60;;;;;;5035537;28;20084;-75
2023/06/28 04:06:07;;;;;;;1.98;0.40;;;21.40;77.60;;;;;;5034555;28;20060;-75
2023/06/28 04:08:33;;;;;;;1.55;0.25;;;21.40;77.90;;;;;;5035196;28;20551;-75
2023/06/28 04:10:58;;;;;;;2.13;0.45;;;21.40;77.90;;;;;;5035410;28;20108;-78
2023/06/28 04:13:25;;;;;;;2.55;0.50;;;21.40;78.00;;;;;;5035900;28;20068;-74
2023/06/28 04:15:52;;;;;;;2.13;0.52;;;21.40;78.20;;;;;;5035111;28;20037;-75
2023/06/28 04:18:18;;;;;;;2.58;0.52;;;21.40;78.40;;;;;;5035152;28;20115;-75
2023/06/28 04:20:43;;;;;;;2.10;0.55;;;21.40;78.60;;;;;;5033830;28;20073;-74
2023/06/28 04:23:09;;;;;;;1.63;0.40;;;21.40;78.70;;;;;;5035161;28;20076;-74
2023/06/28 04:25:34;;;;;;;1.35;0.40;;;21.30;79.20;;;;;;5035321;28;20029;-76
2023/06/28 04:28:00;;;;;;;1.80;0.60;;;21.30;79.30;;;;;;5035017;28;20062;-75
2023/06/28 04:30:26;;;;;;;2.78;0.52;;;21.30;79.80;;;;;;5034046;28;20034;-76
2023/06/28 04:32:51;;;;;;;2.95;0.65;;;21.30;79.80;;;;;;5034058;28;20049;-76
2023/06/28 04:35:18;;;;;;;1.63;0.50;;;21.20;79.90;;;;;;5034925;28;20140;-75
2023/06/28 04:37:43;;;;;;;1.70;0.60;;;21.30;80.20;;;;;;5034769;28;20056;-75
2023/06/28 04:40:10;;;;;;;4.60;0.70;;;21.30;80.20;;;;;;5033621;28;20030;-77
2023/06/28 04:42:35;;;;;;;2.75;0.80;;;21.20;80.10;;;;;;5034548;28;20563;-75
2023/06/28 04:45:01;;;;;;;1.77;0.52;;;21.20;80.20;;;;;;5035002;28;20029;-76
2023/06/28 04:47:27;;;;;;;4.32;0.73;;;21.20;80.60;;;;;;5034336;28;20053;-75
2023/06/28 04:49:57;;;;;;;2.97;0.77;;;21.10;80.60;;;;;;5035199;28;20033;-74
2023/06/28 04:52:24;;;;;;;3.15;0.68;;;21.10;80.70;;;;;;5034922;28;20018;-75
2023/06/28 04:54:50;;;;;;;2.88;0.70;;;21.10;80.70;;;;;;5033242;28;20032;-75
2023/06/28 04:57:17;;;;;;;3.67;0.90;;;21.20;80.80;;;;;;5034378;28;20044;-75
2023/06/28 04:59:43;;;;;;;2.83;0.47;;;21.10;80.90;;;;;;5034475;28;20030;-76
2023/06/28 05:02:09;;;;;;;1.92;0.40;;;21.10;80.90;;;;;;5034529;28;20075;-83
2023/06/28 05:04:37;;;;;;;1.95;0.50;;;21.20;81.00;;;;;;5034866;28;20037;-84
2023/06/28 05:07:04;;;;;;;3.38;0.75;;;21.10;81.20;;;;;;5034022;28;20025;-84
2023/06/28 05:09:33;;;;;;;3.40;0.60;;;21.20;81.30;;;;;;5035314;28;20083;-82
2023/06/28 05:12:00;;;;;;;1.55;0.38;;;21.20;81.20;;;;;;5034714;28;20026;-83
2023/06/28 05:14:27;;;;;;;4.50;0.70;;;21.10;81.30;;;;;;5034770;28;20038;-83
2023/06/28 05:16:52;;;;;;;4.25;0.75;;;21.20;81.50;;;;;;5034535;28;20026;-83
2023/06/28 05:19:19;;;;;;;4.82;0.90;;;21.20;81.70;;;;;;5034606;28;20037;-83
2023/06/28 05:21:45;;;;;;;2.85;0.60;;;21.10;81.60;;;;;;5034496;28;20037;-82
2023/06/28 05:24:10;;;;;;;2.20;0.45;;;21.10;81.50;;;;;;5034530;28;20037;-83
2023/06/28 05:26:36;;;;;;;1.92;0.52;;;21.10;81.60;;;;;;5034760;28;20135;-82
2023/06/28 05:29:02;;;;;;;1.80;0.60;;;21.10;81.50;;;;;;5034443;28;20026;-79
2023/06/28 05:31:27;;;;;;;2.42;0.60;;;21.10;81.60;;;;;;5017247;28;20120;-80
2023/06/28 05:33:53;;;;;;;3.83;0.90;;;21.10;81.70;;;;;;5034957;28;20100;-79
2023/06/28 05:36:22;;;;;;;1.92;0.73;;;21.10;82.20;;;;;;5034612;28;20039;-79
2023/06/28 05:38:48;;;;;;;2.08;0.93;;;21.00;82.50;;;;;;5034389;28;20037;-81
2023/06/28 05:41:16;;;;;;;2.45;0.80;;;21.00;82.60;;;;;;5032978;28;20060;-80
2023/06/28 05:43:43;;;;;;;2.58;0.73;;;21.00;82.70;;;;;;5034184;28;20130;-80
2023/06/28 05:46:09;;;;;;;4.22;1.40;;;20.90;82.80;;;;;;5033721;28;20029;-80
2023/06/28 05:48:35;;;;;;;4.90;1.13;;;20.80;84.00;;;;;;5034590;28;20048;-81
2023/06/28 05:51:01;;;;;;;4.45;1.08;;;20.70;84.50;;;;;;5034175;28;20048;-81
2023/06/28 05:53:29;;;;;;;4.28;1.25;;;20.60;84.90;;;;;;5033819;28;20425;-80
2023/06/28 05:55:55;;;;;;;4.57;1.05;;;20.50;85.20;;;;;;5034112;28;20029;-81
2023/06/28 05:58:20;;;;;;;3.78;1.38;;;20.60;85.40;;;;;;5033418;28;20532;-79
2023/06/28 06:00:47;;;;;;;4.05;1.35;;;20.60;84.60;;;;;;5033285;28;20055;-72
2023/06/28 06:03:13;;;;;;;3.35;0.60;;;20.70;84.00;;;;;;5033464;28;20092;-73
2023/06/28 06:05:38;;;;;;;5.57;1.33;;;20.80;83.60;;;;;;5033575;28;20064;-72
2023/06/28 06:08:05;;;;;;;4.70;1.60;;;20.90;83.50;;;;;;5033451;28;20061;-70
2023/06/28 06:10:31;;;;;;;2.97;0.90;;;20.90;83.90;;;;;;5032064;28;20030;-71
2023/06/28 06:12:56;;;;;;;3.42;1.15;;;20.90;84.20;;;;;;5032313;28;20029;-72
2023/06/28 06:15:22;;;;;;;5.13;0.90;;;21.10;84.00;;;;;;5033424;28;20026;-73
2023/06/28 06:17:49;;;;;;;2.95;0.88;;;21.30;83.60;;;;;;5033211;28;20041;-73
2023/06/28 06:20:15;;;;;;;2.60;0.60;;;21.60;83.20;;;;;;5033307;28;20037;-70
2023/06/28 06:22:42;;;;;;;4.70;0.80;;;21.70;82.60;;;;;;5032988;28;20033;-72
2023/06/28 06:25:08;;;;;;;3.42;0.80;;;21.90;82.30;;;;;;5032960;28;20034;-72
2023/06/28 06:27:34;;;;;;;4.25;0.70;;;22.00;82.00;;;;;;5032926;28;20034;-73
2023/06/28 06:30:00;;;;;;;3.40;0.75;;;22.10;81.60;;;;;;5032723;28;20112;-71
2023/06/28 06:32:25;;;;;;;4.50;0.95;;;22.20;81.40;;;;;;5033214;28;20068;-71
2023/06/28 06:34:51;;;;;;;4.40;1.27;;;22.30;81.10;;;;;;5032916;28;20034;-72
2023/06/28 06:37:17;;;;;;;4.30;0.68;;;22.30;80.70;;;;;;5033347;28;20072;-71
2023/06/28 06:39:43;;;;;;;3.08;0.85;;;22.30;80.60;;;;;;5032966;28;20041;-73
2023/06/28 06:42:08;;;;;;;8.00;1.95;;;22.40;81.10;;;;;;5040466;28;20077;-78
2023/06/28 06:44:34;;;;;;;7.63;2.38;;;22.40;80.40;;;;;;5048587;28;20041;-77
2023/06/28 06:47:02;;;;;;;6.78;2.20;;;22.20;80.20;;;;;;5054276;28;20051;-80
2023/06/28 06:49:28;;;;;;;7.53;2.85;;;21.90;80.60;;;;;;5053176;28;20045;-79
2023/06/28 06:51:53;;;;;;;8.52;2.05;;;21.60;81.80;;;;;;5052587;28;20013;-79
2023/06/28 06:54:19;;;;;;;5.47;2.40;;;21.30;82.60;;;;;;5042240;28;20151;-81
2023/06/28 06:56:45;;;;;;;6.10;2.60;;;21.10;83.60;;;;;;5037072;28;20052;-79
2023/06/28 06:59:10;;;;;;;7.63;2.92;;;20.90;84.60;;;;;;5040626;28;20037;-78
2023/06/28 07:01:36;;;;;;;8.52;2.92;;;20.70;85.10;;;;;;5039926;28;20037;-80
2023/06/28 07:04:01;;;;;;;10.10;3.58;;;20.60;85.90;;;;;;5040593;28;20037;-79
2023/06/28 07:06:27;;;;;;;5.93;2.63;;;20.50;86.30;;;;;;5044212;28;20044;-79
2023/06/28 07:08:54;;;;;;;5.07;2.45;;;20.40;86.80;;;;;;5039781;28;20048;-79
2023/06/28 07:11:19;;;;;;;7.72;2.72;;;20.30;87.40;;;;;;5040827;28;20033;-79
2023/06/28 07:13:45;;;;;;;8.68;3.05;;;20.20;87.40;;;;;;5039911;28;20040;-78
2023/06/28 07:16:11;;;;;;;10.13;3.75;;;20.10;88.00;;;;;;5038807;28;20033;-80
2023/06/28 07:18:38;;;;;;;7.93;3.20;;;20.10;88.40;;;;;;5021295;28;20033;-80
2023/06/28 07:21:05;;;;;;;10.73;3.38;;;20.00;88.50;;;;;;5036980;28;20044;-80
2023/06/28 07:23:31;;;;;;;7.40;2.80;;;20.00;89.00;;;;;;5036879;28;20084;-81
2023/06/28 07:25:57;;;;;;;11.75;4.13;;;19.90;89.30;;;;;;5036567;28;20037;-81
2023/06/28 07:28:22;;;;;;;9.48;3.85;;;19.80;90.10;;;;;;5037743;28;20033;-79
2023/06/28 07:30:57;;;;;;;6.57;3.08;;;19.80;90.40;;;;;;5038252;28;20041;-80
2023/06/28 07:33:23;;;;;;;6.72;3.08;;;19.70;90.40;;;;;;5038488;28;20056;-80
2023/06/28 07:35:52;;;;;;;9.30;4.00;;;19.70;90.60;;;;;;5036833;28;20026;-78
2023/06/28 07:38:19;;;;;;;6.47;3.55;;;19.70;90.70;;;;;;5036806;28;20476;-80
2023/06/28 07:40:46;;;;;;;6.80;4.00;;;19.80;91.10;;;;;;5042751;28;20101;-80
2023/06/28 07:43:12;;;;;;;12.02;3.97;;;19.70;91.00;;;;;;5042895;28;20036;-80
2023/06/28 07:45:39;;;;;;;8.52;4.25;;;19.60;90.80;;;;;;5035999;28;20434;-80
2023/06/28 07:48:05;;;;;;;8.18;3.75;;;19.50;90.90;;;;;;5036900;28;20057;-81
2023/06/28 07:50:31;;;;;;;13.48;4.90;;;19.40;91.10;;;;;;5041037;28;20528;-77
2023/06/28 07:52:56;;;;;;;12.20;4.50;;;19.40;91.20;;;;;;5036764;28;20038;-77
2023/06/28 07:55:22;;;;;;;8.15;2.95;;;19.40;91.30;;;;;;5038304;28;20029;-78
2023/06/28 07:57:48;;;;;;;9.43;3.70;;;19.30;91.30;;;;;;5038483;28;20057;-79
2023/06/28 08:00:14;;;;;;;7.55;3.78;;;19.30;91.30;;;;;;5042750;28;20037;-79
2023/06/28 08:02:40;;;;;;;7.88;4.20;;;19.40;91.40;;;;;;5037169;28;20085;-79
2023/06/28 08:05:07;;;;;;;9.23;4.38;;;19.40;91.70;;;;;;5043517;28;20433;-79
2023/06/28 08:07:34;;;;;;;9.80;4.40;;;19.50;91.80;;;;;;5046767;28;20039;-78
2023/06/28 08:09:59;;;;;;;9.35;3.78;;;19.50;91.90;;;;;;5038164;28;20083;-79
2023/06/28 08:12:25;;;;;;;11.32;4.25;;;19.50;91.90;;;;;;5038901;28;20127;-79
2023/06/28 08:14:51;;;;;;;6.72;3.38;;;19.60;91.80;;;;;;5037673;28;20096;-79
2023/06/28 08:17:16;;;;;;;12.48;4.97;;;19.60;91.80;;;;;;5037906;28;20330;-78
2023/06/28 08:19:42;;;;;;;9.45;3.60;;;19.60;91.80;;;;;;5039626;28;20585;-77
2023/06/28 08:22:07;;;;;;;11.95;5.60;;;19.60;91.90;;;;;;5043213;28;20025;-79
2023/06/28 08:24:33;;;;;;;9.50;3.90;;;19.60;91.90;;;;;;5041018;28;20030;-80
2023/06/28 08:26:59;;;;;;;10.85;4.88;;;19.60;91.90;;;;;;5035971;28;20033;-79
2023/06/28 08:29:25;;;;;;;7.18;4.18;;;19.50;91.80;;;;;;5037245;28;20078;-80
2023/06/28 08:31:50;;;;;;;9.90;4.70;;;19.60;91.80;;;;;;5035205;28;20025;-79
2023/06/28 08:34:16;;;;;;;5.97;2.60;;;19.60;92.50;;;;;;5039011;28;20040;-79
2023/06/28 08:36:42;;;;;;;9.38;3.38;;;19.60;92.70;;;;;;5037467;28;20029;-79
2023/06/28 08:39:08;;;;;;;6.43;4.05;;;19.60;92.70;;;;;;5034282;28;20454;-80
2023/06/28 08:41:37;;;;;;;10.80;4.15;;;19.60;92.80;;;;;;5038414;28;20075;-80
2023/06/28 08:44:06;;;;;;;11.10;3.65;;;19.70;92.60;;;;;;5035225;28;20422;-79
2023/06/28 08:46:31;;;;;;;8.23;3.70;;;19.80;92.60;;;;;;5035413;28;20060;-80
2023/06/28 08:48:58;;;;;;;7.50;3.35;;;19.80;92.80;;;;;;5035027;28;20041;-80
2023/06/28 08:51:24;;;;;;;8.07;3.72;;;19.80;93.00;;;;;;5035289;28;20033;-80
2023/06/28 08:53:52;;;;;;;10.18;3.97;;;19.80;93.00;;;;;;5036763;28;20025;-80
2023/06/28 08:56:17;;;;;;;7.65;4.35;;;19.80;92.80;;;;;;5041138;28;20037;-82
2023/06/28 08:58:47;;;;;;;9.20;3.00;;;19.90;92.50;;;;;;5036298;28;20041;-82
2023/06/28 09:01:13;;;;;;;8.57;3.15;;;19.90;92.50;;;;;;5035833;28;20037;-82
2023/06/28 09:03:42;;;;;;;11.57;3.90;;;19.90;92.80;;;;;;5034785;28;20488;-82
2023/06/28 09:06:09;;;;;;;7.13;2.53;;;20.00;92.70;;;;;;5034815;28;20370;-82
2023/06/28 09:08:35;;;;;;;8.50;3.58;;;20.00;92.60;;;;;;5033639;28;20132;-84
2023/06/28 09:11:02;;;;;;;10.38;3.97;;;20.00;92.80;;;;;;5035235;28;20532;-79
2023/06/28 09:13:28;;;;;;;7.95;3.97;;;20.00;92.60;;;;;;5043402;28;20044;-81
2023/06/28 09:15:55;;;;;;;6.80;2.85;;;20.00;92.70;;;;;;5044382;28;20469;-82
2023/06/28 09:18:21;;;;;;;7.82;3.50;;;20.00;92.90;;;;;;5042034;28;20025;-82
2023/06/28 09:20:51;;;;;;;13.38;4.50;;;19.90;92.90;;;;;;5037026;28;20082;-82
2023/06/28 09:23:24;;;;;;;10.02;3.20;;;20.00;92.80;;;;;;5038552;28;20057;-82
2023/06/28 09:25:50;;;;;;;5.63;3.30;;;19.90;92.70;;;;;;5036707;28;20030;-82
2023/06/28 09:28:17;;;;;;;8.32;3.58;;;20.00;92.60;;;;;;5040148;28;20243;-81
2023/06/28 09:30:42;;;;;;;6.78;3.10;;;20.00;92.40;;;;;;5038571;28;20037;-82
2023/06/28 09:33:08;;;;;;;12.30;3.75;;;20.00;92.20;;;;;;5039216;28;20036;-80
2023/06/28 09:35:39;;;;;;;8.40;3.38;;;20.00;92.30;;;;;;5040260;28;20036;-77
2023/06/28 09:38:08;;;;;;;6.88;3.75;;;20.10;92.40;;;;;;5037004;28;20048;-80
2023/06/28 09:40:34;;;;;;;6.63;2.95;;;20.10;92.40;;;;;;5021540;28;20079;-79
2023/06/28 09:43:00;;;;;;;13.18;4.85;;;20.10;92.10;;;;;;5019358;28;20585;-80
2023/06/28 09:45:28;;;;;;;6.63;2.20;;;20.10;92.20;;;;;;5044369;28;20034;-78
2023/06/28 09:47:57;;;;;;;8.40;3.55;;;20.10;91.80;;;;;;5049418;28;20050;-80
2023/06/28 09:50:42;;;;;;;11.85;4.20;;;20.20;92.00;;;;;;5047282;28;20034;-80
2023/06/28 09:53:13;;;;;;;12.18;4.07;;;20.10;92.20;;;;;;5046057;28;20021;-79
2023/06/28 09:55:40;;;;;;;14.30;4.57;;;20.10;92.10;;;;;;5043119;28;20048;-79
2023/06/28 09:58:18;;;;;;;14.35;5.05;;;20.00;91.80;;;;;;5040251;28;20040;-78
2023/06/28 10:00:46;;;;;;;10.88;4.72;;;20.00;92.00;;;;;;5051823;28;20085;-79
2023/06/28 10:03:13;;;;;;;11.77;4.45;;;20.00;92.10;;;;;;5048894;28;20091;-80
2023/06/28 10:05:41;;;;;;;9.80;4.45;;;20.00;92.30;;;;;;5041262;28;20025;-80
2023/06/28 10:08:09;;;;;;;15.85;5.40;;;19.90;92.30;;;;;;5043335;28;20022;-79
2023/06/28 10:10:36;;;;;;;11.35;4.35;;;19.80;92.30;;;;;;5044116;28;20033;-79
2023/06/28 10:13:03;;;;;;;8.60;3.65;;;19.80;92.40;;;;;;5051381;28;20017;-80
2023/06/28 10:15:41;;;;;;;13.63;4.55;;;19.90;92.50;;;;;;5051873;28;20030;-79
2023/06/28 10:18:07;;;;;;;12.90;5.28;;;19.90;92.50;;;;;;5051711;28;20040;-79
2023/06/28 10:20:33;;;;;;;7.30;3.55;;;20.00;92.40;;;;;;5051991;28;20088;-80
2023/06/28 10:22:59;;;;;;;11.60;3.67;;;20.00;92.50;;;;;;5049737;28;20033;-80
2023/06/28 10:25:27;;;;;;;6.85;2.83;;;20.00;92.50;;;;;;5051605;28;20021;-78
2023/06/28 10:27:54;;;;;;;12.48;5.38;;;20.10;92.50;;;;;;5053090;28;20386;-79
2023/06/28 10:30:25;;;;;;;9.80;4.43;;;20.20;92.70;;;;;;5035104;28;20037;-80
2023/06/28 10:32:53;;;;;;;6.68;3.75;;;20.30;92.60;;;;;;5052833;28;20026;-79
2023/06/28 10:35:19;;;;;;;9.77;4.13;;;20.30;92.40;;;;;;5051353;28;20045;-79
2023/06/28 10:37:46;;;;;;;10.75;5.15;;;20.40;92.20;;;;;;5054942;28;20037;-80
2023/06/28 10:40:12;;;;;;;9.50;4.43;;;20.40;91.60;;;;;;5052889;28;20064;-78
2023/06/28 10:42:41;;;;;;;11.02;4.78;;;20.50;91.70;;;;;;5055019;28;20026;-79
2023/06/28 10:45:08;;;;;;;8.63;3.47;;;20.60;91.50;;;;;;5052954;28;20014;-80
2023/06/28 10:47:35;;;;;;;8.55;4.30;;;20.70;91.40;;;;;;5051508;28;20062;-80
2023/06/28 10:50:11;;;;;;;9.48;4.47;;;20.80;91.30;;;;;;5050681;28;20067;-80
2023/06/28 10:52:47;;;;;;;7.75;4.15;;;20.90;91.20;;;;;;5051640;28;20037;-81
2023/06/28 10:55:20;;;;;;;13.38;5.40;;;21.00;91.10;;;;;;5030840;28;20095;-81
2023/06/28 10:58:02;;;;;;;9.00;5.20;;;21.10;90.90;;;;;;5040622;28;20030;-82
2023/06/28 11:00:37;;;;;;;9.90;4.65;;;21.10;90.80;;;;;;5038643;28;20033;-81
2023/06/28 11:03:06;;;;;;;10.07;4.50;;;21.20;90.50;;;;;;5037728;28;20048;-83
2023/06/28 11:05:55;;;;;;;12.32;4.70;;;21.20;90.50;;;;;;5040274;28;20040;-82
2023/06/28 11:08:34;;;;;;;9.68;5.30;;;21.30;91.00;;;;;;5038791;28;20041;-82
2023/06/28 11:11:01;;;;;;;7.75;4.80;;;21.40;90.50;;;;;;5039450;28;20368;-81
2023/06/28 11:13:48;;;;;;;6.88;3.75;;;21.50;90.00;;;;;;5038391;28;20025;-82
2023/06/28 11:16:22;;;;;;;11.90;5.25;;;21.60;89.50;;;;;;5039859;28;20477;-82
2023/06/28 11:18:49;;;;;;;9.25;4.90;;;21.70;88.10;;;;;;5035731;28;20068;-81
2023/06/28 11:21:23;;;;;;;8.65;4.85;;;21.70;87.90;;;;;;5033111;28;20037;-81
2023/06/28 11:23:52;;;;;;;6.43;3.95;;;21.80;88.60;;;;;;5042175;28;20025;-82
2023/06/28 11:26:32;;;;;;;7.78;4.32;;;21.90;89.10;;;;;;5040216;28;20458;-83
2023/06/28 11:28:57;;;;;;;9.98;4.60;;;22.00;90.00;;;;;;5039157;28;20029;-82
2023/06/28 11:31:25;;;;;;;9.85;4.75;;;22.00;89.70;;;;;;5037774;28;20039;-83
2023/06/28 11:33:54;;;;;;;10.73;5.50;;;22.10;89.30;;;;;;5042101;28;20025;-83
2023/06/28 11:36:23;;;;;;;11.23;5.75;;;22.10;88.90;;;;;;5039061;28;20508;-83
2023/06/28 11:38:48;;;;;;;8.95;4.80;;;22.20;87.60;;;;;;5040286;28;20084;-83
2023/06/28 11:41:14;;;;;;;11.60;4.93;;;22.20;87.30;;;;;;5044602;28;20042;-83
2023/06/28 11:43:43;;;;;;;9.18;4.68;;;22.20;87.10;;;;;;5046084;28;20188;-83
2023/06/28 11:46:08;;;;;;;9.48;5.30;;;22.20;87.00;;;;;;5045065;28;20026;-80
2023/06/28 11:48:34;;;;;;;10.10;5.47;;;22.30;87.00;;;;;;5048315;28;20038;-83
2023/06/28 11:51:02;;;;;;;10.05;5.30;;;22.30;86.90;;;;;;5047445;28;20064;-82
2023/06/28 11:53:29;;;;;;;11.18;5.65;;;22.30;87.50;;;;;;5047077;28;20465;-82
2023/06/28 11:55:56;;;;;;;8.63;5.00;;;22.30;87.60;;;;;;5041806;28;20060;-82
2023/06/28 11:58:36;;;;;;;11.35;6.40;;;22.30;87.70;;;;;;5036281;28;20128;-78
2023/06/28 12:01:07;;;;;;;12.35;5.80;;;22.20;86.60;;;;;;5036470;28;20041;-78
2023/06/28 12:03:37;;;;;;;12.00;5.57;;;22.20;86.50;;;;;;5036794;28;20053;-78
2023/06/28 12:06:05;;;;;;;11.15;5.40;;;22.10;86.60;;;;;;5036541;28;20068;-79
2023/06/28 12:08:33;;;;;;;13.02;5.47;;;22.10;86.80;;;;;;5035324;28;20034;-79
2023/06/28 12:11:00;;;;;;;9.18;4.45;;;22.00;86.80;;;;;;5036063;28;20034;-79
2023/06/28 12:13:27;;;;;;;8.77;4.95;;;22.00;87.40;;;;;;5036845;28;20033;-78
2023/06/28 12:15:54;;;;;;;8.45;5.10;;;22.00;87.90;;;;;;5035961;28;20025;-80
2023/06/28 12:18:19;;;;;;;7.35;4.50;;;22.00;87.90;;;;;;5035906;28;20036;-78
2023/06/28 12:20:45;;;;;;;8.93;4.90;;;22.10;88.80;;;;;;5035615;28;20452;-78
2023/06/28 12:23:12;;;;;;;9.23;5.05;;;22.10;88.80;;;;;;5034586;28;20025;-78
2023/06/28 12:25:42;;;;;;;13.48;5.68;;;22.20;89.40;;;;;;5036098;28;20083;-78
2023/06/28 12:28:11;;;;;;;11.40;5.57;;;22.20;89.20;;;;;;5035804;28;20040;-79
2023/06/28 12:30:37;;;;;;;10.27;4.20;;;22.20;89.00;;;;;;5035679;28;20091;-78
2023/06/28 12:33:07;;;;;;;8.50;4.10;;;22.30;88.40;;;;;;5035471;28;20041;-78
2023/06/28 12:35:33;;;;;;;8.90;4.95;;;22.40;87.90;;;;;;5034141;28;20033;-79
2023/06/28 12:38:02;;;;;;;11.80;6.03;;;22.40;88.20;;;;;;5034271;28;20450;-79
2023/06/28 12:40:35;;;;;;;9.30;5.82;;;22.50;87.90;;;;;;5034236;28;20029;-79
2023/06/28 12:43:21;;;;;;;11.73;5.90;;;22.60;87.60;;;;;;5035594;28;20037;-79